Time;durP1;ratioP1;P1;durP2;ratioP2;P2;SDS_P1;SDS_P2;PMS_P1;PMS_P2;Temp;Humidity;BMP_temperature;BMP_pressure;BME280_temperature;BME280_humidity;BME280_pressure;Samples;Min_cycle;Max_cycle;Signal;HPM_P1;HPM_P2
2024/02/16 00:02:15;;;;;;;0.88;0.88;;;7.50;99.90;;;;;;5085147;28;20537;-81
2024/02/16 00:04:43;;;;;;;2.38;2.15;;;7.70;99.90;;;;;;5087425;28;20234;-82
2024/02/16 00:07:10;;;;;;;1.52;1.42;;;7.60;99.90;;;;;;5100769;28;20209;-82
2024/02/16 00:09:37;;;;;;;3.58;3.28;;;7.70;99.90;;;;;;5078730;28;20225;-81
2024/02/16 00:12:04;;;;;;;2.72;1.77;;;7.70;99.90;;;;;;5086489;28;20209;-81
2024/02/16 00:14:31;;;;;;;2.75;2.47;;;7.70;99.90;;;;;;5087860;28;20199;-80
2024/02/16 00:16:59;;;;;;;2.38;2.17;;;7.90;99.90;;;;;;5088336;28;20441;-80
2024/02/16 00:19:27;;;;;;;3.00;2.90;;;7.80;99.90;;;;;;5099155;28;20198;-79
2024/02/16 00:21:55;;;;;;;5.30;5.00;;;7.90;99.90;;;;;;5089470;28;20267;-80
2024/02/16 00:24:22;;;;;;;1.95;1.85;;;7.80;99.90;;;;;;5098577;28;20195;-81
2024/02/16 00:26:51;;;;;;;1.90;1.80;;;7.80;99.90;;;;;;5082515;28;20529;-80
2024/02/16 00:29:19;;;;;;;0.95;0.85;;;7.80;99.90;;;;;;5085475;28;20330;-80
2024/02/16 00:31:47;;;;;;;2.35;2.25;;;7.80;99.90;;;;;;5093354;28;20265;-80
2024/02/16 00:34:17;;;;;;;3.03;2.83;;;7.80;99.90;;;;;;5087765;28;20207;-81
2024/02/16 00:36:44;;;;;;;4.13;3.92;;;7.70;99.90;;;;;;5088927;28;20262;-80
2024/02/16 00:39:11;;;;;;;4.07;2.47;;;7.70;99.90;;;;;;5082282;28;20200;-79
2024/02/16 00:41:38;;;;;;;1.75;1.67;;;7.50;99.90;;;;;;5085052;28;20202;-80
2024/02/16 00:44:05;;;;;;;4.75;4.45;;;7.40;99.90;;;;;;5077710;28;20523;-80
2024/02/16 00:46:32;;;;;;;26.45;5.63;;;7.40;99.90;;;;;;5083833;28;20233;-80
2024/02/16 00:49:00;;;;;;;1.15;1.15;;;7.50;99.90;;;;;;5083540;28;20522;-81
2024/02/16 00:51:27;;;;;;;3.80;2.40;;;7.40;99.90;;;;;;5072757;28;20414;-82
2024/02/16 00:53:54;;;;;;;2.50;2.30;;;7.10;99.90;;;;;;5084912;28;20191;-82
2024/02/16 00:56:21;;;;;;;1.73;1.65;;;7.10;99.90;;;;;;5067427;28;20268;-82
2024/02/16 00:58:48;;;;;;;1.77;1.67;;;7.10;99.90;;;;;;5087361;28;20198;-81
2024/02/16 01:01:15;;;;;;;4.60;3.05;;;7.20;99.90;;;;;;5072731;28;20231;-81
2024/02/16 01:03:43;;;;;;;5.15;2.30;;;7.00;99.90;;;;;;5094647;28;20253;-81
2024/02/16 01:06:10;;;;;;;3.55;2.60;;;6.90;99.90;;;;;;5085307;28;20197;-81
2024/02/16 01:08:37;;;;;;;0.60;0.60;;;7.00;99.90;;;;;;5081575;28;20283;-80
2024/02/16 01:11:04;;;;;;;4.65;2.45;;;7.10;99.90;;;;;;5084274;28;20225;-82
2024/02/16 01:13:32;;;;;;;1.50;1.38;;;6.80;99.90;;;;;;5086217;28;20214;-81
2024/02/16 01:15:59;;;;;;;3.40;3.20;;;6.80;99.90;;;;;;5086010;28;20369;-83
2024/02/16 01:18:29;;;;;;;2.50;2.30;;;6.70;99.90;;;;;;5087502;28;20246;-82
2024/02/16 01:20:57;;;;;;;1.90;1.80;;;6.70;99.90;;;;;;5075106;28;20196;-82
2024/02/16 01:23:24;;;;;;;3.00;1.98;;;6.60;99.90;;;;;;5091640;28;20205;-82
2024/02/16 01:25:52;;;;;;;3.75;3.17;;;6.60;99.90;;;;;;5084379;28;20265;-82
2024/02/16 01:28:18;;;;;;;6.57;3.10;;;6.50;99.90;;;;;;5085213;28;20199;-83
2024/02/16 01:30:45;;;;;;;13.80;2.25;;;6.40;99.90;;;;;;5088553;28;20246;-81
2024/02/16 01:33:12;;;;;;;3.78;3.58;;;6.40;99.90;;;;;;5094350;28;20226;-82
2024/02/16 01:35:40;;;;;;;3.33;3.13;;;6.40;99.90;;;;;;5090983;28;20210;-81
2024/02/16 01:38:07;;;;;;;3.15;2.83;;;6.50;99.90;;;;;;5098959;28;20272;-81
2024/02/16 01:40:34;;;;;;;2.78;2.58;;;6.30;99.90;;;;;;5106263;28;20207;-81
2024/02/16 01:43:01;;;;;;;12.93;3.08;;;6.30;99.90;;;;;;5094365;28;20251;-81
2024/02/16 01:45:28;;;;;;;1.65;1.52;;;6.40;99.90;;;;;;5094766;28;20499;-82
2024/02/16 01:47:56;;;;;;;3.70;3.45;;;6.40;99.90;;;;;;5079843;28;20202;-79
2024/02/16 01:50:23;;;;;;;3.65;3.40;;;6.30;99.90;;;;;;5098701;28;20242;-81
2024/02/16 01:52:53;;;;;;;2.95;2.85;;;6.40;99.90;;;;;;5088969;28;20206;-81
2024/02/16 01:55:21;;;;;;;1.90;1.80;;;6.30;99.90;;;;;;5095169;28;20222;-81
2024/02/16 01:57:48;;;;;;;4.05;3.85;;;6.30;99.90;;;;;;5079216;28;20202;-81
2024/02/16 02:00:17;;;;;;;9.48;2.67;;;6.20;99.90;;;;;;5088416;28;20466;-80
2024/02/16 02:02:46;;;;;;;4.85;2.97;;;6.20;99.90;;;;;;5072583;28;20222;-81
2024/02/16 02:05:14;;;;;;;2.55;2.35;;;6.20;99.90;;;;;;5095664;28;20179;-84
2024/02/16 02:07:43;;;;;;;4.20;3.80;;;6.10;99.90;;;;;;5103131;28;20179;-80
2024/02/16 02:10:14;;;;;;;1.52;1.52;;;6.20;99.90;;;;;;5095177;28;20215;-82
2024/02/16 02:12:42;;;;;;;0.60;0.60;;;6.30;99.90;;;;;;5098270;28;20225;-81
2024/02/16 02:15:10;;;;;;;2.30;2.20;;;6.30;99.90;;;;;;5086012;28;20202;-82
2024/02/16 02:17:38;;;;;;;2.05;1.95;;;6.30;99.90;;;;;;5088417;28;20206;-81
2024/02/16 02:20:10;;;;;;;5.45;4.95;;;6.30;99.90;;;;;;5070163;28;20214;-81
2024/02/16 02:22:38;;;;;;;3.28;3.00;;;6.30;99.90;;;;;;5079314;28;20202;-82
2024/02/16 02:25:05;;;;;;;2.92;2.83;;;6.30;99.90;;;;;;5084101;28;20228;-81
2024/02/16 02:27:33;;;;;;;2.70;2.50;;;6.30;99.90;;;;;;5082603;28;20249;-81
2024/02/16 02:30:00;;;;;;;1.08;1.08;;;6.60;99.90;;;;;;5090998;28;20506;-82
2024/02/16 02:32:28;;;;;;;3.70;3.50;;;6.40;99.90;;;;;;5082853;28;20199;-80
2024/02/16 02:34:55;;;;;;;3.00;2.90;;;6.30;99.90;;;;;;5095318;28;20269;-81
2024/02/16 02:37:22;;;;;;;0.93;0.93;;;6.30;99.90;;;;;;5073486;28;20253;-81
2024/02/16 02:39:49;;;;;;;2.92;2.80;;;6.20;99.90;;;;;;5093955;28;20282;-81
2024/02/16 02:42:16;;;;;;;3.15;2.90;;;6.20;99.90;;;;;;5092765;28;20265;-81
2024/02/16 02:44:49;;;;;;;3.33;3.13;;;6.30;99.90;;;;;;5098874;28;20217;-81
2024/02/16 02:47:17;;;;;;;2.75;2.55;;;6.20;99.90;;;;;;5085174;28;20197;-82
2024/02/16 02:49:44;;;;;;;0.40;0.40;;;6.00;99.90;;;;;;5092415;28;20419;-81
2024/02/16 02:52:11;;;;;;;2.22;2.13;;;5.80;99.90;;;;;;5093962;28;20475;-82
2024/02/16 02:54:38;;;;;;;4.95;3.90;;;6.00;99.90;;;;;;5081821;28;20236;-83
2024/02/16 02:57:06;;;;;;;2.65;2.55;;;6.00;99.90;;;;;;5082032;28;20195;-82
2024/02/16 02:59:33;;;;;;;2.22;2.08;;;6.00;99.90;;;;;;5090113;28;20500;-83
2024/02/16 03:02:00;;;;;;;2.60;2.45;;;5.90;99.90;;;;;;5086955;28;20227;-82
2024/02/16 03:04:27;;;;;;;1.98;1.90;;;5.90;99.90;;;;;;5069757;28;20198;-81
2024/02/16 03:06:54;;;;;;;3.30;3.03;;;5.90;99.90;;;;;;5096323;28;20208;-81
2024/02/16 03:09:22;;;;;;;2.03;1.92;;;5.80;99.90;;;;;;5087220;28;20210;-81
2024/02/16 03:11:49;;;;;;;1.75;1.65;;;5.90;99.90;;;;;;5067548;28;20236;-81
2024/02/16 03:14:19;;;;;;;3.80;3.50;;;5.70;99.90;;;;;;5092403;28;20201;-81
2024/02/16 03:16:46;;;;;;;4.60;4.20;;;5.80;99.90;;;;;;5081784;28;20202;-81
2024/02/16 03:19:13;;;;;;;3.80;2.17;;;5.80;99.90;;;;;;5090435;28;20435;-83
2024/02/16 03:21:40;;;;;;;2.33;2.22;;;5.70;99.90;;;;;;5062995;28;20208;-82
2024/02/16 03:24:08;;;;;;;5.60;5.18;;;5.90;99.90;;;;;;5089399;28;20672;-81
2024/02/16 03:26:35;;;;;;;3.38;3.17;;;5.70;99.90;;;;;;5070254;28;20301;-82
2024/02/16 03:29:03;;;;;;;3.55;3.25;;;5.70;99.90;;;;;;5068279;28;20215;-81
2024/02/16 03:31:30;;;;;;;1.40;1.35;;;5.60;99.90;;;;;;5068856;28;20254;-81
2024/02/16 03:33:57;;;;;;;1.70;1.60;;;5.70;99.90;;;;;;5091814;28;20261;-81
2024/02/16 03:36:25;;;;;;;3.42;3.22;;;5.70;99.90;;;;;;5094158;28;20220;-82
2024/02/16 03:38:51;;;;;;;2.13;1.92;;;5.70;99.90;;;;;;5094166;28;20480;-81
2024/02/16 03:41:23;;;;;;;2.60;2.50;;;5.70;99.90;;;;;;5078071;28;20242;-79
2024/02/16 03:43:51;;;;;;;5.00;3.78;;;5.70;99.90;;;;;;5083679;28;20558;-82
2024/02/16 03:46:18;;;;;;;3.45;3.15;;;5.80;99.90;;;;;;5086512;28;20535;-82
2024/02/16 03:48:46;;;;;;;1.13;1.13;;;5.70;99.90;;;;;;5091595;28;20195;-81
2024/02/16 03:51:13;;;;;;;3.42;3.28;;;5.80;99.90;;;;;;5086586;28;20574;-80
2024/02/16 03:53:40;;;;;;;3.20;3.00;;;5.60;99.90;;;;;;5068754;28;20487;-81
2024/02/16 03:56:07;;;;;;;4.28;3.80;;;5.60;99.90;;;;;;5085352;28;20205;-81
2024/02/16 03:58:36;;;;;;;2.75;2.65;;;5.60;99.90;;;;;;5090056;28;20223;-82
2024/02/16 04:01:05;;;;;;;5.07;2.67;;;5.70;99.90;;;;;;5072278;28;20207;-80
2024/02/16 04:03:32;;;;;;;2.03;1.70;;;5.80;99.90;;;;;;5057878;28;20199;-81
2024/02/16 04:05:59;;;;;;;1.90;1.80;;;5.90;99.90;;;;;;5095407;28;20262;-82
2024/02/16 04:08:26;;;;;;;3.38;3.17;;;5.60;99.90;;;;;;5084308;28;20227;-83
2024/02/16 04:10:53;;;;;;;3.83;2.75;;;5.60;99.90;;;;;;5082354;28;20241;-80
2024/02/16 04:13:21;;;;;;;3.25;3.05;;;5.60;99.90;;;;;;5090638;28;20244;-80
2024/02/16 04:15:48;;;;;;;5.53;3.20;;;5.70;99.90;;;;;;5086186;28;20646;-81
2024/02/16 04:18:20;;;;;;;3.05;2.85;;;5.70;99.90;;;;;;5092604;28;20269;-80
2024/02/16 04:20:48;;;;;;;2.25;2.15;;;5.60;99.90;;;;;;5084410;28;20256;-79
2024/02/16 04:23:15;;;;;;;4.25;3.90;;;5.80;99.90;;;;;;5066602;28;20195;-81
2024/02/16 04:25:42;;;;;;;2.47;2.33;;;5.60;99.90;;;;;;5078967;28;20200;-80
2024/02/16 04:28:09;;;;;;;4.60;4.30;;;5.60;99.90;;;;;;5088741;28;20266;-81
2024/02/16 04:30:36;;;;;;;2.05;1.95;;;5.50;99.90;;;;;;5067147;28;20237;-81
2024/02/16 04:33:04;;;;;;;2.50;2.35;;;5.40;99.90;;;;;;5084266;28;20218;-82
2024/02/16 04:35:31;;;;;;;11.18;7.57;;;5.30;99.90;;;;;;5087271;28;20225;-81
2024/02/16 04:37:58;;;;;;;2.72;2.63;;;5.40;99.90;;;;;;5068717;28;20192;-81
2024/02/16 04:40:26;;;;;;;3.50;3.22;;;5.20;99.90;;;;;;5093726;28;20203;-82
2024/02/16 04:42:53;;;;;;;18.35;3.70;;;5.20;99.90;;;;;;5074410;28;20227;-80
2024/02/16 04:45:20;;;;;;;6.82;4.65;;;5.10;99.90;;;;;;5067170;28;20263;-80
2024/02/16 04:47:48;;;;;;;5.22;4.72;;;5.10;99.90;;;;;;5093931;28;20201;-81
2024/02/16 04:50:15;;;;;;;1.83;1.73;;;4.90;99.90;;;;;;5088023;28;20211;-79
2024/02/16 04:52:43;;;;;;;3.75;3.40;;;5.00;99.90;;;;;;5100267;28;20214;-82
2024/02/16 04:55:11;;;;;;;7.80;5.47;;;5.00;99.90;;;;;;5098978;28;20217;-82
2024/02/16 04:57:38;;;;;;;8.68;3.88;;;4.90;99.90;;;;;;5092313;28;20199;-80
2024/02/16 05:00:05;;;;;;;2.80;2.58;;;5.00;99.90;;;;;;5073873;28;20387;-80
2024/02/16 05:02:32;;;;;;;4.60;4.30;;;5.00;99.90;;;;;;5090570;28;20257;-80
2024/02/16 05:04:59;;;;;;;4.55;4.25;;;4.90;99.90;;;;;;5096795;28;20209;-82
2024/02/16 05:07:31;;;;;;;3.47;3.28;;;4.90;99.90;;;;;;5084598;28;20222;-82
2024/02/16 05:09:58;;;;;;;3.08;2.88;;;4.80;99.90;;;;;;5090456;28;20289;-80
2024/02/16 05:12:26;;;;;;;5.07;4.75;;;5.10;99.90;;;;;;5076029;28;20530;-81
2024/02/16 05:14:53;;;;;;;7.35;5.95;;;4.90;99.90;;;;;;5056012;28;20219;-82
2024/02/16 05:17:22;;;;;;;3.08;2.88;;;5.00;99.90;;;;;;5079121;28;20199;-82
2024/02/16 05:19:49;;;;;;;3.95;3.63;;;4.90;99.90;;;;;;5082314;28;20567;-80
2024/02/16 05:22:18;;;;;;;4.03;3.72;;;4.90;99.90;;;;;;5084375;28;20522;-79
2024/02/16 05:24:46;;;;;;;5.57;4.97;;;4.90;99.90;;;;;;5079174;28;20207;-80
2024/02/16 05:27:13;;;;;;;7.40;6.80;;;4.90;99.90;;;;;;5079462;28;20225;-80
2024/02/16 05:29:41;;;;;;;5.63;5.30;;;5.00;99.90;;;;;;5076461;28;20392;-80
2024/02/16 05:32:08;;;;;;;3.03;2.83;;;5.00;99.90;;;;;;5075344;28;20195;-82
2024/02/16 05:34:38;;;;;;;6.82;6.32;;;5.00;99.90;;;;;;5079236;28;20274;-79
2024/02/16 05:37:06;;;;;;;3.95;3.75;;;5.00;99.90;;;;;;5087356;28;20202;-81
2024/02/16 05:39:43;;;;;;;9.00;3.20;;;4.90;99.90;;;;;;5092615;28;20203;-81
2024/02/16 05:42:10;;;;;;;4.72;4.32;;;4.90;99.90;;;;;;5079457;28;20449;-81
2024/02/16 05:44:38;;;;;;;4.05;3.85;;;4.80;99.90;;;;;;5079355;28;20432;-82
2024/02/16 05:47:05;;;;;;;3.58;3.33;;;4.80;99.90;;;;;;5081462;28;20195;-82
2024/02/16 05:49:32;;;;;;;7.68;7.18;;;4.80;99.90;;;;;;5087767;28;20250;-81
2024/02/16 05:52:17;;;;;;;5.20;4.70;;;4.90;99.90;;;;;;5082981;28;20227;-80
2024/02/16 05:54:49;;;;;;;11.75;5.07;;;4.80;99.90;;;;;;5081001;28;20494;-82
2024/02/16 05:57:16;;;;;;;3.63;3.33;;;4.80;99.90;;;;;;5092124;28;20379;-81
2024/02/16 05:59:45;;;;;;;2.75;2.55;;;4.80;99.90;;;;;;5070909;28;20266;-82
2024/02/16 06:02:12;;;;;;;4.82;4.38;;;4.80;99.90;;;;;;5087028;28;20206;-81
2024/02/16 06:04:39;;;;;;;3.30;3.10;;;4.60;99.90;;;;;;5090967;28;20198;-82
2024/02/16 06:07:08;;;;;;;4.65;4.35;;;4.70;99.90;;;;;;5083094;28;20262;-82
2024/02/16 06:09:37;;;;;;;3.03;2.83;;;4.70;99.90;;;;;;5081908;28;20202;-81
2024/02/16 06:12:06;;;;;;;4.55;4.25;;;4.70;99.90;;;;;;5091543;28;20284;-82
2024/02/16 06:14:34;;;;;;;3.15;2.95;;;4.80;99.90;;;;;;5094624;28;20209;-82
2024/02/16 06:17:01;;;;;;;3.90;3.60;;;4.90;99.90;;;;;;5092002;28;20195;-80
2024/02/16 06:19:28;;;;;;;11.50;5.13;;;4.90;99.90;;;;;;5084089;28;20210;-81
2024/02/16 06:21:56;;;;;;;4.30;4.10;;;5.00;99.90;;;;;;5076609;28;20202;-80
2024/02/16 06:24:23;;;;;;;4.72;4.43;;;5.00;99.90;;;;;;5080266;28;20200;-81
2024/02/16 06:26:51;;;;;;;5.07;4.40;;;5.00;99.90;;;;;;5100124;28;20449;-82
2024/02/16 06:29:23;;;;;;;3.75;3.55;;;5.00;99.90;;;;;;5064286;28;20270;-80
2024/02/16 06:31:51;;;;;;;1.90;1.80;;;5.10;99.90;;;;;;5085491;28;20233;-81
2024/02/16 06:34:19;;;;;;;2.15;2.03;;;5.10;99.90;;;;;;5097385;28;20253;-82
2024/02/16 06:36:47;;;;;;;3.38;3.17;;;5.10;99.90;;;;;;5084641;28;20199;-82
2024/02/16 06:39:19;;;;;;;3.95;2.58;;;5.10;99.90;;;;;;5080483;28;20479;-82
2024/02/16 06:41:47;;;;;;;3.17;3.00;;;5.10;99.90;;;;;;5082592;28;20395;-82
2024/02/16 06:44:15;;;;;;;3.50;3.33;;;5.20;99.90;;;;;;5087991;28;20217;-80
2024/02/16 06:46:45;;;;;;;1.10;1.10;;;5.10;99.90;;;;;;5092407;28;20207;-81
2024/02/16 06:49:12;;;;;;;5.25;4.95;;;5.20;99.90;;;;;;5072349;28;20225;-80
2024/02/16 06:51:39;;;;;;;2.42;2.25;;;5.40;99.90;;;;;;5082574;28;20219;-82
2024/02/16 06:54:07;;;;;;;5.13;4.80;;;5.50;99.90;;;;;;5087994;28;20198;-81
2024/02/16 06:56:35;;;;;;;1.08;1.05;;;5.80;99.90;;;;;;5091486;28;20418;-82
2024/02/16 06:59:03;;;;;;;5.88;5.30;;;5.70;99.90;;;;;;5091377;28;20199;-80
2024/02/16 07:01:30;;;;;;;13.20;4.00;;;5.80;99.90;;;;;;5091015;28;20287;-82
2024/02/16 07:03:57;;;;;;;5.13;4.85;;;5.90;99.90;;;;;;5093290;28;20262;-81
2024/02/16 07:06:24;;;;;;;3.45;3.15;;;5.90;99.90;;;;;;5101409;28;20206;-85
2024/02/16 07:08:51;;;;;;;4.03;2.97;;;6.00;99.90;;;;;;5092576;28;20202;-83
2024/02/16 07:11:20;;;;;;;1.60;1.50;;;6.00;99.90;;;;;;5102558;28;20241;-80
2024/02/16 07:13:48;;;;;;;1.10;1.10;;;6.10;99.90;;;;;;5089431;28;20207;-82
2024/02/16 07:16:16;;;;;;;6.30;4.63;;;6.30;99.90;;;;;;5089427;28;20298;-81
2024/02/16 07:18:43;;;;;;;3.13;2.92;;;6.60;99.90;;;;;;5092042;28;20226;-81
2024/02/16 07:21:11;;;;;;;2.42;2.33;;;6.80;99.90;;;;;;5076528;28;20207;-81
2024/02/16 07:23:38;;;;;;;3.65;3.35;;;6.90;99.90;;;;;;5095248;28;20250;-81
2024/02/16 07:26:05;;;;;;;3.30;3.05;;;7.40;99.90;;;;;;5083127;28;20207;-82
2024/02/16 07:28:34;;;;;;;2.92;2.72;;;8.10;99.90;;;;;;5102288;28;20201;-80
2024/02/16 07:31:01;;;;;;;2.90;2.80;;;8.80;99.90;;;;;;5096735;28;20261;-82
2024/02/16 07:33:29;;;;;;;3.88;3.67;;;9.60;99.90;;;;;;5107415;28;20271;-83
2024/02/16 07:35:56;;;;;;;0.80;0.80;;;10.50;99.90;;;;;;5096446;28;20383;-81
2024/02/16 07:38:27;;;;;;;1.08;1.08;;;11.00;99.90;;;;;;5096275;28;20215;-81
2024/02/16 07:40:55;;;;;;;3.72;3.55;;;10.90;99.90;;;;;;5067362;28;20526;-80
2024/02/16 07:43:24;;;;;;;1.88;1.77;;;11.70;99.90;;;;;;5095600;28;20579;-82
2024/02/16 07:45:53;;;;;;;2.15;2.05;;;12.10;99.90;;;;;;5084097;28;20229;-78
2024/02/16 07:48:21;;;;;;;1.65;1.55;;;13.00;99.90;;;;;;5076845;28;20483;-79
2024/02/16 07:50:52;;;;;;;1.35;1.35;;;13.40;99.90;;;;;;5092229;28;20227;-82
2024/02/16 07:53:19;;;;;;;1.25;1.25;;;12.90;99.90;;;;;;5095909;28;20207;-82
2024/02/16 07:55:45;;;;;;;3.28;3.17;;;12.90;99.90;;;;;;5105679;28;20257;-80
2024/02/16 07:58:12;;;;;;;20.70;8.80;;;13.60;99.90;;;;;;5097401;28;20200;-83
2024/02/16 08:00:39;;;;;;;1.97;1.90;;;13.60;99.90;;;;;;5110904;28;20205;-81
2024/02/16 08:03:06;;;;;;;2.80;2.60;;;14.00;99.90;;;;;;5096850;28;20408;-81
2024/02/16 08:05:33;;;;;;;4.63;4.33;;;14.60;99.90;;;;;;5111837;28;20667;-80
2024/02/16 08:08:00;;;;;;;5.27;4.97;;;14.70;99.90;;;;;;5107005;28;20519;-82
2024/02/16 08:10:27;;;;;;;1.60;1.60;;;15.00;99.90;;;;;;5080280;28;20472;-82
2024/02/16 08:12:54;;;;;;;2.43;1.63;;;15.10;99.90;;;;;;5086426;28;20620;-80
2024/02/16 08:15:25;;;;;;;1.37;1.37;;;14.90;99.90;;;;;;5088994;28;20444;-79
2024/02/16 08:17:53;;;;;;;15.47;3.07;;;15.10;99.90;;;;;;5087377;28;20475;-81
2024/02/16 08:20:21;;;;;;;4.70;4.40;;;15.30;99.90;;;;;;5072435;28;20754;-81
2024/02/16 08:22:48;;;;;;;4.23;3.00;;;15.80;99.90;;;;;;5085467;28;20480;-80
2024/02/16 08:25:15;;;;;;;4.17;3.87;;;16.00;99.90;;;;;;5064754;28;20476;-79
2024/02/16 08:27:42;;;;;;;2.43;2.33;;;15.20;99.90;;;;;;5088585;28;20822;-80
2024/02/16 08:30:11;;;;;;;5.93;4.00;;;15.80;99.90;;;;;;5074335;28;20411;-81
2024/02/16 08:32:38;;;;;;;3.93;3.73;;;16.00;99.90;;;;;;5083557;28;20456;-82
2024/02/16 08:35:06;;;;;;;3.40;3.20;;;16.20;99.90;;;;;;5081852;28;20476;-80
2024/02/16 08:37:33;;;;;;;3.20;3.00;;;16.40;99.90;;;;;;5085691;28;20476;-82
2024/02/16 08:40:01;;;;;;;1.10;1.10;;;16.00;99.90;;;;;;5077403;28;20445;-81
2024/02/16 08:42:28;;;;;;;1.73;1.63;;;15.60;99.90;;;;;;5069547;28;20420;-80
2024/02/16 08:44:57;;;;;;;1.53;1.53;;;15.30;99.90;;;;;;5088521;28;20440;-80
2024/02/16 08:47:24;;;;;;;0.83;0.83;;;13.90;99.90;;;;;;5076800;28;20426;-82
2024/02/16 08:49:51;;;;;;;2.10;2.00;;;13.10;99.90;;;;;;5088090;28;20468;-81
2024/02/16 08:52:18;;;;;;;2.90;2.70;;;13.20;99.90;;;;;;5062997;28;20454;-82
2024/02/16 08:54:45;;;;;;;0.90;0.90;;;13.50;99.90;;;;;;5084803;28;20417;-82
2024/02/16 08:57:12;;;;;;;2.07;1.97;;;12.90;99.90;;;;;;5071780;28;20450;-80
2024/02/16 08:59:41;;;;;;;4.80;3.87;;;12.50;99.90;;;;;;5074412;28;20454;-79
2024/02/16 09:02:08;;;;;;;2.93;2.73;;;12.40;99.90;;;;;;5093244;28;20459;-82
2024/02/16 09:04:36;;;;;;;2.73;2.63;;;12.60;99.90;;;;;;5093819;28;20502;-80
2024/02/16 09:07:03;;;;;;;1.53;1.43;;;12.50;99.90;;;;;;5094073;28;20420;-81
2024/02/16 09:09:30;;;;;;;1.37;1.27;;;12.50;99.90;;;;;;5085904;28;20459;-81
2024/02/16 09:11:57;;;;;;;3.13;2.97;;;12.70;99.90;;;;;;5080683;28;20444;-80
2024/02/16 09:14:24;;;;;;;1.27;1.27;;;12.90;99.90;;;;;;5073139;28;20656;-81
2024/02/16 09:16:51;;;;;;;0.97;0.97;;;13.40;99.90;;;;;;5098624;28;20452;-81
2024/02/16 09:19:21;;;;;;;1.17;1.13;;;14.10;99.90;;;;;;5077262;28;20421;-80
2024/02/16 09:21:53;;;;;;;1.90;1.80;;;14.20;99.90;;;;;;5084459;28;20429;-82
2024/02/16 09:24:28;;;;;;;2.77;2.17;;;14.30;99.90;;;;;;5087090;28;20449;-81
2024/02/16 09:26:57;;;;;;;1.07;1.07;;;14.10;99.90;;;;;;5083436;28;20470;-81
2024/02/16 09:29:24;;;;;;;0.93;0.93;;;13.80;99.90;;;;;;5070339;28;20746;-80
2024/02/16 09:31:51;;;;;;;2.60;2.43;;;13.80;99.90;;;;;;5063706;28;20480;-81
2024/02/16 09:34:18;;;;;;;1.33;1.33;;;13.70;99.90;;;;;;5073815;28;20500;-81
2024/02/16 09:36:46;;;;;;;0.80;0.80;;;13.50;99.90;;;;;;5088270;28;20466;-80
2024/02/16 09:39:13;;;;;;;0.80;0.80;;;13.20;99.90;;;;;;5080357;28;20476;-80
2024/02/16 09:41:43;;;;;;;1.53;1.53;;;13.20;99.90;;;;;;5062251;28;20426;-80
2024/02/16 09:44:10;;;;;;;1.10;1.10;;;13.00;99.90;;;;;;5094247;28;20472;-82
2024/02/16 09:46:37;;;;;;;2.27;2.13;;;12.90;99.90;;;;;;5075801;28;20422;-81
2024/02/16 09:49:05;;;;;;;3.23;3.03;;;12.80;99.90;;;;;;5086445;28;20470;-80
2024/02/16 09:51:36;;;;;;;0.65;0.65;;;12.60;99.90;;;;;;5060263;28;20461;-83
2024/02/16 09:54:03;;;;;;;4.93;4.63;;;12.50;99.90;;;;;;5088328;28;20201;-79
2024/02/16 09:56:31;;;;;;;2.22;2.13;;;12.50;99.90;;;;;;5078953;28;20420;-82
2024/02/16 09:58:58;;;;;;;4.28;1.60;;;12.50;99.90;;;;;;5075586;28;20232;-82
2024/02/16 10:01:25;;;;;;;1.73;1.63;;;12.70;99.90;;;;;;5072766;28;20442;-82
2024/02/16 10:03:53;;;;;;;2.55;2.45;;;12.90;99.90;;;;;;5074362;28;20408;-81
2024/02/16 10:06:22;;;;;;;1.20;1.10;;;12.90;99.90;;;;;;5089030;28;20288;-80
2024/02/16 10:08:51;;;;;;;1.70;1.60;;;13.10;99.90;;;;;;5079643;28;20218;-81
2024/02/16 10:11:24;;;;;;;0.70;0.70;;;13.20;99.90;;;;;;5067928;28;20233;-83
2024/02/16 10:14:02;;;;;;;1.03;1.03;;;13.20;99.90;;;;;;5083944;28;20559;-81
2024/02/16 10:16:31;;;;;;;1.50;1.50;;;13.20;99.90;;;;;;5070849;28;20829;-80
2024/02/16 10:19:10;;;;;;;2.47;2.33;;;13.20;99.90;;;;;;5074237;28;20420;-83
2024/02/16 10:21:43;;;;;;;0.97;0.97;;;13.60;99.90;;;;;;5102974;28;20427;-82
2024/02/16 10:24:13;;;;;;;2.20;2.03;;;13.50;99.90;;;;;;5082697;28;20410;-81
2024/02/16 10:26:40;;;;;;;1.10;1.00;;;13.50;99.90;;;;;;5098458;28;20412;-84
2024/02/16 10:29:11;;;;;;;0.73;0.73;;;13.50;99.90;;;;;;5066350;28;20816;-82
2024/02/16 10:31:38;;;;;;;0.63;0.63;;;13.60;99.90;;;;;;5093052;28;20543;-82
2024/02/16 10:34:06;;;;;;;1.90;1.63;;;13.60;99.90;;;;;;5090574;28;20519;-82
2024/02/16 10:36:36;;;;;;;1.20;1.20;;;13.70;99.90;;;;;;5076019;28;20484;-81
2024/02/16 10:39:05;;;;;;;2.60;2.50;;;13.70;99.90;;;;;;5084622;28;20454;-80
2024/02/16 10:41:37;;;;;;;0.70;0.70;;;13.60;99.90;;;;;;5073053;28;20444;-80
2024/02/16 10:44:05;;;;;;;0.70;0.70;;;13.60;99.90;;;;;;5088953;28;20794;-80
2024/02/16 10:46:33;;;;;;;0.60;0.60;;;13.70;99.90;;;;;;5071609;28;20424;-80
2024/02/16 10:49:05;;;;;;;2.07;1.93;;;13.80;99.90;;;;;;5077777;28;20434;-79
2024/02/16 10:51:55;;;;;;;1.13;1.13;;;13.80;99.90;;;;;;5084756;28;20453;-81
2024/02/16 10:54:25;;;;;;;1.00;1.00;;;13.90;99.90;;;;;;5079084;28;20424;-81
2024/02/16 10:56:53;;;;;;;1.23;1.23;;;14.00;99.90;;;;;;5090322;28;20401;-80
2024/02/16 10:59:21;;;;;;;0.70;0.70;;;14.00;99.90;;;;;;5078518;28;20679;-79
2024/02/16 11:01:47;;;;;;;1.63;1.53;;;13.80;99.90;;;;;;5103496;28;20836;-82
2024/02/16 11:04:20;;;;;;;1.00;0.97;;;13.90;99.90;;;;;;5083836;28;20446;-80
2024/02/16 11:06:59;;;;;;;0.90;0.90;;;14.10;99.90;;;;;;5082742;28;20999;-79
2024/02/16 11:09:36;;;;;;;1.10;1.10;;;14.20;99.90;;;;;;5071057;28;20441;-79
2024/02/16 11:12:06;;;;;;;0.93;0.93;;;14.30;99.90;;;;;;5076656;28;20470;-80
2024/02/16 11:14:39;;;;;;;0.87;0.87;;;14.30;99.90;;;;;;5085940;28;20404;-80
2024/02/16 11:17:13;;;;;;;0.60;0.60;;;14.30;99.90;;;;;;5092907;28;20473;-80
2024/02/16 11:19:47;;;;;;;1.30;1.20;;;14.30;99.90;;;;;;5093929;28;20587;-82
2024/02/16 11:22:17;;;;;;;1.90;1.30;;;14.30;99.90;;;;;;5085594;28;20440;-83
2024/02/16 11:24:50;;;;;;;1.90;1.77;;;14.30;99.90;;;;;;5090833;28;20463;-82
2024/02/16 11:27:21;;;;;;;1.30;1.30;;;14.30;99.90;;;;;;5095784;28;20485;-79
2024/02/16 11:29:49;;;;;;;2.20;2.10;;;14.30;99.90;;;;;;5084857;28;20422;-82
2024/02/16 11:32:20;;;;;;;1.00;1.00;;;14.30;99.90;;;;;;5096618;28;20529;-81
2024/02/16 11:34:48;;;;;;;1.57;1.53;;;14.20;99.90;;;;;;5084989;28;20436;-81
2024/02/16 11:37:16;;;;;;;1.00;1.00;;;14.20;99.90;;;;;;5100044;28;20762;-82
2024/02/16 11:39:44;;;;;;;0.70;0.70;;;14.20;99.90;;;;;;5085529;28;20414;-81
2024/02/16 11:42:15;;;;;;;0.80;0.80;;;14.10;99.90;;;;;;5099088;28;20641;-83
2024/02/16 11:44:54;;;;;;;1.10;1.10;;;14.20;99.90;;;;;;5061355;28;20421;-82
2024/02/16 11:47:27;;;;;;;0.70;0.70;;;14.20;99.90;;;;;;5082109;28;20579;-82
2024/02/16 11:50:16;;;;;;;0.70;0.70;;;14.20;99.90;;;;;;5076074;28;20464;-80
2024/02/16 11:52:44;;;;;;;0.70;0.70;;;14.20;99.90;;;;;;5058503;28;20455;-81
2024/02/16 11:55:11;;;;;;;0.70;0.70;;;14.20;99.90;;;;;;5056868;28;20763;-83
2024/02/16 11:57:39;;;;;;;0.80;0.80;;;14.20;99.90;;;;;;5085862;28;20490;-81
2024/02/16 12:00:10;;;;;;;0.90;0.90;;;14.20;99.90;;;;;;5096016;28;20427;-81
2024/02/16 12:02:38;;;;;;;0.70;0.70;;;14.30;99.90;;;;;;5100335;28;20559;-83
2024/02/16 12:05:05;;;;;;;0.87;0.87;;;14.20;99.90;;;;;;5095363;28;20483;-81
2024/02/16 12:07:33;;;;;;;0.97;0.97;;;14.10;99.90;;;;;;5076921;28;20449;-80
2024/02/16 12:10:06;;;;;;;0.70;0.70;;;14.20;99.90;;;;;;5089276;28;20674;-81
2024/02/16 12:12:33;;;;;;;0.90;0.90;;;14.30;99.90;;;;;;5062716;28;20474;-82
2024/02/16 12:15:00;;;;;;;1.50;1.40;;;14.20;99.90;;;;;;5080960;28;20429;-83
2024/02/16 12:17:28;;;;;;;1.30;1.30;;;14.10;99.90;;;;;;5081700;28;20435;-80
2024/02/16 12:19:55;;;;;;;0.90;0.90;;;14.00;99.90;;;;;;5081435;28;20711;-80
2024/02/16 12:22:22;;;;;;;1.03;1.03;;;14.00;99.90;;;;;;5081913;28;20443;-81
2024/02/16 12:24:50;;;;;;;1.67;1.67;;;14.00;99.90;;;;;;5098243;28;20421;-80
2024/02/16 12:27:18;;;;;;;1.00;1.00;;;14.00;99.90;;;;;;5073669;28;20518;-83
2024/02/16 12:29:45;;;;;;;1.10;1.10;;;14.10;99.90;;;;;;5091769;28;20457;-79
2024/02/16 12:32:18;;;;;;;1.80;1.70;;;14.20;99.90;;;;;;5072821;28;20478;-80
2024/02/16 12:34:46;;;;;;;0.80;0.80;;;14.30;99.90;;;;;;5086627;28;20435;-80
2024/02/16 12:37:13;;;;;;;0.70;0.70;;;14.30;99.90;;;;;;5062030;28;20624;-80
2024/02/16 12:39:40;;;;;;;0.70;0.70;;;14.20;99.90;;;;;;5093638;28;20629;-81
2024/02/16 12:42:08;;;;;;;2.17;2.07;;;14.20;99.90;;;;;;5084684;28;20407;-81
2024/02/16 12:44:35;;;;;;;1.37;1.37;;;14.40;99.90;;;;;;5091680;28;20467;-80
2024/02/16 12:47:02;;;;;;;0.60;0.60;;;14.40;99.90;;;;;;5087795;28;20443;-80
2024/02/16 12:49:30;;;;;;;0.70;0.70;;;14.40;99.90;;;;;;5086282;28;20414;-82
2024/02/16 12:51:57;;;;;;;1.00;1.00;;;14.50;99.90;;;;;;5087495;28;20484;-84
2024/02/16 12:54:24;;;;;;;0.60;0.60;;;14.50;99.90;;;;;;5082773;28;20444;-81
2024/02/16 12:56:52;;;;;;;1.67;1.57;;;14.40;99.90;;;;;;5093766;28;20892;-80
2024/02/16 12:59:21;;;;;;;2.33;2.23;;;14.50;99.90;;;;;;5060128;28;20615;-81